Time;durP1;ratioP1;P1;durP2;ratioP2;P2;SDS_P1;SDS_P2;PMS_P1;PMS_P2;Temp;Humidity;BMP_temperature;BMP_pressure;BME280_temperature;BME280_humidity;BME280_pressure;Samples;Min_cycle;Max_cycle;Signal;HPM_P1;HPM_P2
2022/03/11 00:00:47;;;;;;;17.52;8.68;;;;;;;1.00;58.47;96854.84;5054342;28;20059;-68
2022/03/11 00:03:13;;;;;;;17.65;8.48;;;;;;;0.97;60.11;96855.44;5039490;28;20051;-68
2022/03/11 00:05:40;;;;;;;16.05;8.25;;;;;;;0.91;59.42;96860.13;5034490;28;20719;-68
2022/03/11 00:08:06;;;;;;;19.48;8.45;;;;;;;0.87;61.01;96856.44;5021091;28;20397;-68
2022/03/11 00:10:31;;;;;;;20.73;9.10;;;;;;;0.83;60.28;96862.72;5022697;28;20041;-68
2022/03/11 00:12:57;;;;;;;20.40;9.15;;;;;;;0.75;59.81;96856.13;5041682;28;20566;-69
2022/03/11 00:15:23;;;;;;;21.20;9.65;;;;;;;0.79;59.65;96853.63;5026778;28;20831;-69
2022/03/11 00:17:48;;;;;;;18.95;8.85;;;;;;;0.84;59.90;96848.16;5023154;28;20050;-67
2022/03/11 00:20:19;;;;;;;17.67;7.75;;;;;;;0.82;59.72;96847.66;5015984;28;20068;-67
2022/03/11 00:22:46;;;;;;;18.27;8.57;;;;;;;0.79;59.35;96853.63;5042152;28;20544;-68
2022/03/11 00:25:12;;;;;;;15.98;8.27;;;;;;;0.69;59.27;96851.94;5035550;28;20051;-67
2022/03/11 00:27:37;;;;;;;17.65;8.95;;;;;;;0.65;60.62;96857.13;5030734;28;20137;-68
2022/03/11 00:30:03;;;;;;;16.88;8.32;;;;;;;-0.07;64.66;96858.38;5045824;28;20040;-67
2022/03/11 00:32:29;;;;;;;18.80;9.00;;;;;;;-0.24;66.61;96863.47;5027544;28;20041;-69
2022/03/11 00:34:54;;;;;;;14.63;7.75;;;;;;;-0.20;66.65;96861.78;5042475;28;20052;-68
2022/03/11 00:37:20;;;;;;;14.50;8.15;;;;;;;-0.13;66.73;96854.16;5037810;28;20048;-68
2022/03/11 00:39:45;;;;;;;14.75;7.53;;;;;;;-0.05;66.55;96856.19;5044623;28;20095;-67
2022/03/11 00:42:10;;;;;;;15.23;8.32;;;;;;;-0.01;66.51;96851.00;5052621;28;20049;-67
2022/03/11 00:44:36;;;;;;;16.95;8.25;;;;;;;0.17;66.54;96847.47;5049523;28;20053;-67
2022/03/11 00:47:02;;;;;;;20.88;9.35;;;;;;;0.16;65.95;96851.28;5042100;28;20090;-67
2022/03/11 00:49:27;;;;;;;17.90;8.50;;;;;;;0.09;66.08;96848.16;5039800;28;20049;-67
2022/03/11 00:51:53;;;;;;;19.00;8.30;;;;;;;-0.08;65.65;96850.59;5043096;28;20052;-66
2022/03/11 00:54:18;;;;;;;24.05;9.50;;;;;;;0.06;66.86;96848.75;5036233;28;20044;-67
2022/03/11 00:56:44;;;;;;;18.80;8.63;;;;;;;-0.06;66.09;96854.56;5042566;28;20131;-67
2022/03/11 00:59:09;;;;;;;21.95;9.88;;;;;;;-0.32;66.25;96850.69;5035441;28;20413;-67
2022/03/11 01:01:34;;;;;;;21.50;9.65;;;;;;;-0.42;67.65;96843.56;5043357;28;20036;-67
2022/03/11 01:04:00;;;;;;;20.38;8.65;;;;;;;-0.33;68.21;96847.19;5024482;28;20045;-67
2022/03/11 01:06:25;;;;;;;18.60;9.20;;;;;;;-0.36;67.20;96849.66;5036791;28;20037;-67
2022/03/11 01:08:50;;;;;;;18.30;9.10;;;;;;;-0.55;67.50;96842.41;5053475;28;20041;-68
2022/03/11 01:11:16;;;;;;;19.42;8.82;;;;;;;-0.55;68.73;96833.53;5048679;28;20060;-67
2022/03/11 01:13:41;;;;;;;16.90;8.40;;;;;;;-0.40;68.55;96833.28;5043525;28;20493;-68
2022/03/11 01:16:07;;;;;;;17.48;8.73;;;;;;;-0.42;68.03;96838.97;5019384;28;20421;-67
2022/03/11 01:18:32;;;;;;;16.77;8.02;;;;;;;-0.61;67.94;96830.91;5032090;28;20486;-68
2022/03/11 01:20:58;;;;;;;15.20;8.02;;;;;;;-0.72;68.27;96828.66;5022427;28;20041;-68
2022/03/11 01:23:24;;;;;;;17.25;8.63;;;;;;;-0.80;68.97;96824.72;5017340;28;20103;-68
2022/03/11 01:25:49;;;;;;;17.45;8.50;;;;;;;-0.72;69.86;96834.03;5003671;28;20107;-68
2022/03/11 01:28:14;;;;;;;18.77;9.25;;;;;;;-1.00;71.39;96840.03;5016760;28;20080;-68
2022/03/11 01:30:41;;;;;;;21.48;9.43;;;;;;;-1.13;71.31;96837.22;5021584;28;20045;-68
2022/03/11 01:33:06;;;;;;;17.15;9.20;;;;;;;-1.10;72.57;96840.16;4999001;28;20092;-68
2022/03/11 01:35:32;;;;;;;18.92;8.52;;;;;;;-0.95;72.24;96831.13;5026110;28;20049;-68
2022/03/11 01:37:57;;;;;;;17.67;8.88;;;;;;;-0.90;72.02;96828.38;5022237;28;20493;-68
2022/03/11 01:40:23;;;;;;;17.60;9.32;;;;;;;-0.96;70.82;96829.50;5036820;28;20056;-68
2022/03/11 01:42:49;;;;;;;14.77;7.78;;;;;;;-1.16;69.78;96833.25;5043537;28;20052;-68
2022/03/11 01:45:14;;;;;;;19.10;10.35;;;;;;;-1.09;72.33;96830.22;5034835;28;20048;-68
2022/03/11 01:47:40;;;;;;;19.90;9.32;;;;;;;-1.01;72.37;96829.56;5009000;28;20046;-67
2022/03/11 01:50:06;;;;;;;19.50;9.65;;;;;;;-1.01;71.79;96834.94;5016795;28;20067;-66
2022/03/11 01:52:31;;;;;;;16.42;8.65;;;;;;;-0.87;71.61;96829.66;5003316;28;20041;-67
2022/03/11 01:54:57;;;;;;;22.60;8.98;;;;;;;-0.98;71.23;96831.69;5026065;28;20049;-67
2022/03/11 01:57:24;;;;;;;18.20;8.77;;;;;;;-1.22;71.42;96827.13;5034115;28;20779;-67
2022/03/11 01:59:49;;;;;;;22.20;9.68;;;;;;;-1.09;72.10;96828.31;5016501;28;20153;-67
2022/03/11 02:02:15;;;;;;;18.02;8.10;;;;;;;-1.08;72.04;96832.63;5016774;28;20049;-67
2022/03/11 02:04:41;;;;;;;19.60;9.40;;;;;;;-1.14;70.97;96827.59;5003079;28;20041;-67
2022/03/11 02:07:06;;;;;;;19.35;9.52;;;;;;;-1.16;72.26;96828.66;5016023;28;20468;-67
2022/03/11 02:09:32;;;;;;;18.88;9.38;;;;;;;-1.01;72.73;96830.38;5027729;28;20079;-66
2022/03/11 02:11:57;;;;;;;20.23;9.00;;;;;;;-0.99;72.25;96832.75;5044307;28;20041;-67
2022/03/11 02:14:23;;;;;;;18.55;9.02;;;;;;;-1.03;72.10;96824.47;5040273;28;20037;-67
2022/03/11 02:16:48;;;;;;;16.23;8.95;;;;;;;-1.00;71.98;96825.78;5039881;28;20053;-66
2022/03/11 02:19:14;;;;;;;18.40;8.55;;;;;;;-1.02;70.61;96819.91;5035673;28;20045;-67
2022/03/11 02:21:47;;;;;;;18.63;8.52;;;;;;;-0.85;71.35;96817.50;5041863;28;20044;-67
2022/03/11 02:24:17;;;;;;;21.58;9.15;;;;;;;-0.92;71.51;96814.38;5036120;28;20049;-67
2022/03/11 02:26:42;;;;;;;;;;;;;;;-0.87;71.00;96814.31;5038975;28;20045;-67
2022/03/11 02:29:08;;;;;;;17.80;8.48;;;;;;;-1.01;71.45;96825.00;5015055;28;20521;-67
2022/03/11 02:31:34;;;;;;;18.83;9.27;;;;;;;-1.11;71.75;96824.34;5021688;28;20041;-67
2022/03/11 02:34:04;;;;;;;19.15;8.63;;;;;;;-1.36;70.70;96823.53;5042597;28;20770;-68
2022/03/11 02:36:30;;;;;;;17.02;9.18;;;;;;;-1.31;73.31;96825.38;5037390;28;20311;-67
2022/03/11 02:38:55;;;;;;;18.83;9.13;;;;;;;-1.27;72.61;96821.81;5031052;28;20033;-68
2022/03/11 02:41:21;;;;;;;20.25;9.32;;;;;;;-1.39;71.91;96827.63;5035166;28;20482;-67
2022/03/11 02:43:46;;;;;;;18.40;8.60;;;;;;;-1.50;72.55;96822.63;5040777;28;20631;-67
2022/03/11 02:46:15;;;;;;;17.73;8.65;;;;;;;-1.50;73.84;96825.31;5034888;28;20132;-66
2022/03/11 02:48:42;;;;;;;20.77;8.98;;;;;;;-1.52;74.25;96816.75;5040491;28;20040;-68
2022/03/11 02:51:07;;;;;;;18.73;9.15;;;;;;;-1.54;74.84;96820.50;5032931;28;20136;-67
2022/03/11 02:53:33;;;;;;;17.85;8.50;;;;;;;-1.75;73.12;96821.78;5039986;28;20128;-67
2022/03/11 02:55:58;;;;;;;21.63;9.05;;;;;;;-2.11;76.73;96814.06;5039898;28;20114;-66
2022/03/11 02:58:24;;;;;;;18.48;8.88;;;;;;;-2.37;75.87;96825.03;5035282;28;20516;-67
2022/03/11 03:00:50;;;;;;;16.40;8.60;;;;;;;-2.37;77.27;96827.72;5040900;28;20372;-67
2022/03/11 03:03:15;;;;;;;18.38;9.15;;;;;;;-2.39;76.91;96827.19;5030189;28;21984;-67
2022/03/11 03:05:41;;;;;;;17.30;8.90;;;;;;;-2.63;79.90;96821.75;5040225;28;20041;-67
2022/03/11 03:08:07;;;;;;;22.80;9.48;;;;;;;-2.83;81.63;96830.69;5034716;28;20556;-67
2022/03/11 03:10:32;;;;;;;23.70;9.75;;;;;;;-2.99;82.04;96826.47;5037844;28;20447;-67
2022/03/11 03:12:58;;;;;;;21.58;9.77;;;;;;;-2.94;82.82;96827.25;5040363;28;20041;-67
2022/03/11 03:15:23;;;;;;;20.05;8.90;;;;;;;-2.71;82.24;96819.63;5018155;28;20049;-67
2022/03/11 03:17:49;;;;;;;17.40;8.35;;;;;;;-2.82;82.53;96818.09;5040531;28;20052;-67
2022/03/11 03:20:15;;;;;;;21.75;9.98;;;;;;;-2.85;81.91;96816.75;5033945;28;20087;-67
2022/03/11 03:22:40;;;;;;;20.73;10.15;;;;;;;-2.95;82.82;96814.16;5020890;28;20040;-67
2022/03/11 03:25:07;;;;;;;19.88;9.65;;;;;;;-3.08;84.32;96827.06;5034779;28;20554;-66
2022/03/11 03:27:33;;;;;;;18.23;9.43;;;;;;;-3.16;84.33;96830.31;5039717;28;20144;-67
2022/03/11 03:29:58;;;;;;;18.42;9.27;;;;;;;-3.15;84.54;96831.94;5040501;28;20147;-67
2022/03/11 03:32:23;;;;;;;23.48;9.90;;;;;;;-2.91;84.30;96836.63;5035422;28;20045;-68
2022/03/11 03:34:49;;;;;;;20.50;10.20;;;;;;;-3.08;84.96;96834.28;5022883;28;20440;-67
2022/03/11 03:37:14;;;;;;;18.90;9.60;;;;;;;-3.16;85.61;96841.03;5013648;28;20045;-67
2022/03/11 03:39:41;;;;;;;21.50;9.07;;;;;;;-3.08;85.85;96836.97;5029979;28;20425;-64
2022/03/11 03:42:07;;;;;;;20.55;10.45;;;;;;;-3.05;85.01;96830.28;5034622;28;20190;-66
2022/03/11 03:44:33;;;;;;;22.17;9.93;;;;;;;-3.11;85.23;96838.34;5039619;28;20100;-66
2022/03/11 03:46:59;;;;;;;21.23;10.15;;;;;;;-3.20;85.13;96836.50;5039577;28;20379;-67
2022/03/11 03:49:25;;;;;;;21.95;10.63;;;;;;;-3.27;86.08;96834.91;5039773;28;20048;-66
2022/03/11 03:51:51;;;;;;;22.27;10.90;;;;;;;-3.30;87.67;96830.09;5060580;28;20065;-67
2022/03/11 03:54:17;;;;;;;20.35;10.18;;;;;;;-3.36;87.63;96823.16;5050957;28;20071;-66
2022/03/11 03:56:44;;;;;;;21.85;10.48;;;;;;;-3.54;89.35;96823.78;5028953;28;20049;-66
2022/03/11 03:59:10;;;;;;;18.92;9.80;;;;;;;-3.59;89.43;96819.22;5018608;28;20051;-67
2022/03/11 04:01:38;;;;;;;23.20;10.18;;;;;;;-3.31;89.83;96817.78;5024444;28;20064;-67
2022/03/11 04:04:05;;;;;;;17.52;9.38;;;;;;;-3.05;89.06;96824.91;5039044;28;20045;-68
2022/03/11 04:06:32;;;;;;;17.00;9.00;;;;;;;-3.03;87.91;96826.22;5044062;28;20041;-66
2022/03/11 04:08:58;;;;;;;23.65;10.25;;;;;;;-3.13;84.75;96820.94;5025956;28;20539;-67
2022/03/11 04:11:25;;;;;;;20.77;9.70;;;;;;;-3.20;83.56;96825.78;5038315;28;20048;-67
2022/03/11 04:13:51;;;;;;;21.02;10.35;;;;;;;-3.13;84.93;96828.97;5043450;28;20094;-66
2022/03/11 04:16:18;;;;;;;24.20;11.20;;;;;;;-3.25;83.76;96828.50;5037663;28;20037;-67
2022/03/11 04:18:43;;;;;;;16.95;9.45;;;;;;;-3.33;83.62;96825.31;5058782;28;20060;-67
2022/03/11 04:21:09;;;;;;;18.15;9.02;;;;;;;-3.30;84.84;96826.63;5049821;28;20037;-67
2022/03/11 04:23:34;;;;;;;18.23;9.07;;;;;;;-3.33;83.99;96827.97;5051347;28;20052;-66
2022/03/11 04:26:01;;;;;;;17.40;8.73;;;;;;;-3.36;83.08;96833.88;5043854;28;20044;-66
2022/03/11 04:28:26;;;;;;;25.30;10.13;;;;;;;-3.38;83.34;96838.72;5034128;28;20055;-66
2022/03/11 04:30:52;;;;;;;20.38;9.18;;;;;;;-3.45;84.16;96840.88;5042348;28;20053;-66
2022/03/11 04:33:18;;;;;;;18.48;9.07;;;;;;;-3.33;86.35;96844.06;5037695;28;20099;-66
2022/03/11 04:35:43;;;;;;;17.42;8.75;;;;;;;-3.37;86.45;96834.94;5042417;28;20041;-65
2022/03/11 04:38:09;;;;;;;20.73;9.25;;;;;;;-3.32;86.39;96840.28;5037707;28;20036;-66
2022/03/11 04:40:35;;;;;;;18.50;9.70;;;;;;;-3.08;85.77;96840.47;5048443;28;20084;-65
2022/03/11 04:43:02;;;;;;;19.27;9.52;;;;;;;-2.98;84.58;96853.00;5043499;28;20407;-66
2022/03/11 04:45:28;;;;;;;23.10;9.68;;;;;;;-2.97;84.59;96838.53;5035564;28;20045;-65
2022/03/11 04:47:54;;;;;;;21.38;10.32;;;;;;;-2.79;84.39;96837.09;5042560;28;20053;-65
2022/03/11 04:50:20;;;;;;;18.33;8.98;;;;;;;-2.86;84.08;96849.19;5018915;28;20052;-65
2022/03/11 04:52:45;;;;;;;19.33;9.57;;;;;;;-2.85;85.46;96842.78;5022590;28;20120;-64
2022/03/11 04:55:11;;;;;;;16.90;9.32;;;;;;;-2.93;83.53;96839.59;5017391;28;20179;-66
2022/03/11 04:57:37;;;;;;;19.63;9.32;;;;;;;-3.11;83.71;96843.69;5021810;28;20037;-64
2022/03/11 05:00:04;;;;;;;18.83;9.35;;;;;;;-3.13;84.99;96840.50;5025286;28;20571;-66
2022/03/11 05:02:31;;;;;;;18.23;8.90;;;;;;;-3.16;85.10;96845.59;5042042;28;20041;-65
2022/03/11 05:04:56;;;;;;;21.98;10.18;;;;;;;-3.38;85.61;96836.03;5042879;28;20366;-66
2022/03/11 05:07:22;;;;;;;20.95;8.88;;;;;;;-3.39;86.01;96834.41;5035518;28;20078;-67
2022/03/11 05:09:48;;;;;;;19.70;9.82;;;;;;;-3.26;87.05;96841.06;5024287;28;20541;-67
2022/03/11 05:12:13;;;;;;;19.15;8.93;;;;;;;-3.28;86.12;96835.19;5035669;28;20048;-67
2022/03/11 05:14:39;;;;;;;19.45;9.05;;;;;;;-3.32;86.33;96836.81;5040636;28;20044;-68
2022/03/11 05:17:04;;;;;;;20.05;9.68;;;;;;;-3.40;85.57;96838.19;5036193;28;20048;-68
2022/03/11 05:19:30;;;;;;;26.90;10.15;;;;;;;-3.39;86.18;96838.97;5043495;28;20037;-67
2022/03/11 05:21:56;;;;;;;17.10;9.65;;;;;;;-3.52;84.73;96841.16;5026748;28;20571;-68
2022/03/11 05:24:21;;;;;;;24.17;10.60;;;;;;;-3.42;86.50;96843.03;5036043;28;22180;-67
2022/03/11 05:26:48;;;;;;;21.38;10.63;;;;;;;-3.53;87.24;96849.47;5044098;28;20116;-67
2022/03/11 05:29:14;;;;;;;18.75;9.77;;;;;;;-3.60;86.33;96841.72;5023381;28;20041;-68
2022/03/11 05:31:39;;;;;;;22.35;9.73;;;;;;;-3.79;87.63;96844.16;5050260;28;20048;-68
2022/03/11 05:34:05;;;;;;;21.02;9.88;;;;;;;-3.73;88.64;96858.34;5036505;28;20049;-66
2022/03/11 05:36:30;;;;;;;20.08;8.80;;;;;;;-3.80;87.83;96852.47;5040676;28;20519;-67
2022/03/11 05:38:57;;;;;;;19.13;9.68;;;;;;;-3.79;88.82;96852.19;5041584;28;20037;-67
2022/03/11 05:41:22;;;;;;;29.67;10.63;;;;;;;-3.87;89.11;96853.56;5035808;28;20231;-66
2022/03/11 05:43:48;;;;;;;23.35;12.07;;;;;;;-3.89;89.18;96858.38;5038365;28;20063;-67
2022/03/11 05:46:14;;;;;;;22.63;10.70;;;;;;;-3.81;88.97;96859.69;5035365;28;20040;-66
2022/03/11 05:48:39;;;;;;;19.58;9.50;;;;;;;-3.70;89.84;96857.81;5041182;28;20504;-66
2022/03/11 05:51:05;;;;;;;23.73;10.68;;;;;;;-3.45;90.31;96862.31;5037396;28;20041;-68
2022/03/11 05:53:30;;;;;;;21.58;9.70;;;;;;;-3.42;87.27;96863.63;5038876;28;20041;-64
2022/03/11 05:55:56;;;;;;;21.60;9.43;;;;;;;-3.63;86.13;96869.03;5039350;28;20036;-66
2022/03/11 05:58:21;;;;;;;17.08;10.00;;;;;;;-3.54;87.91;96869.28;5035601;28;20049;-66
2022/03/11 06:00:46;;;;;;;22.88;10.05;;;;;;;-3.34;88.07;96866.53;5039491;28;20792;-66
2022/03/11 06:03:12;;;;;;;15.82;9.55;;;;;;;-3.30;87.31;96872.94;5035400;28;20180;-67
2022/03/11 06:05:37;;;;;;;18.58;9.18;;;;;;;-3.13;89.27;96871.84;5041017;28;20041;-67
2022/03/11 06:08:03;;;;;;;22.77;9.57;;;;;;;-2.85;89.83;96878.41;5037447;28;20079;-68
2022/03/11 06:10:29;;;;;;;21.38;9.80;;;;;;;-2.51;87.35;96878.50;5039280;28;20051;-66
2022/03/11 06:12:54;;;;;;;18.30;10.35;;;;;;;-2.24;85.76;96876.44;5040985;28;20037;-65
2022/03/11 06:15:19;;;;;;;21.38;10.38;;;;;;;-1.69;84.46;96889.69;5034577;28;20440;-66
2022/03/11 06:17:45;;;;;;;17.33;8.30;;;;;;;-1.00;79.75;96874.19;5024688;28;20051;-66
2022/03/11 06:20:13;;;;;;;18.67;8.38;;;;;;;0.04;74.28;96882.44;5017391;28;20500;-66
2022/03/11 06:22:49;;;;;;;15.18;7.72;;;;;;;1.03;67.39;96885.81;5021067;28;20486;-65
2022/03/11 06:25:16;;;;;;;13.73;7.65;;;;;;;1.84;63.98;96879.78;5028050;28;20044;-66
2022/03/11 06:27:41;;;;;;;18.13;8.18;;;;;;;2.54;60.30;96862.13;5041483;28;20101;-66
2022/03/11 06:30:08;;;;;;;16.23;6.97;;;;;;;3.07;57.93;96876.66;5035398;28;20425;-65
2022/03/11 06:32:40;;;;;;;15.80;7.25;;;;;;;3.73;54.74;96878.56;5038653;28;20593;-67
2022/03/11 06:35:06;;;;;;;14.13;7.38;;;;;;;4.53;52.29;96878.19;5025631;28;20049;-67
2022/03/11 06:37:33;;;;;;;18.98;8.50;;;;;;;5.20;50.21;96875.88;5039761;28;20045;-67
2022/03/11 06:39:59;;;;;;;19.63;9.20;;;;;;;5.81;49.29;96887.16;5040364;28;20071;-67
2022/03/11 06:42:24;;;;;;;17.48;8.18;;;;;;;6.29;46.99;96898.66;5036170;28;20444;-68
2022/03/11 06:44:50;;;;;;;17.23;8.55;;;;;;;6.35;46.96;96885.66;5040590;28;20049;-67
2022/03/11 06:47:16;;;;;;;13.38;7.10;;;;;;;6.60;47.00;96887.31;5034684;28;20063;-68
2022/03/11 06:49:41;;;;;;;13.95;7.18;;;;;;;6.05;46.52;96883.81;5037023;28;20145;-67
2022/03/11 06:52:07;;;;;;;18.13;7.53;;;;;;;6.99;45.41;96884.34;5036025;28;20128;-67
2022/03/11 06:54:32;;;;;;;16.85;8.40;;;;;;;7.75;43.24;96879.31;5039544;28;20040;-66
2022/03/11 06:56:58;;;;;;;15.98;7.80;;;;;;;8.26;41.81;96876.91;5040144;28;20079;-66
2022/03/11 06:59:23;;;;;;;16.67;8.50;;;;;;;7.89;41.65;96890.66;5041427;28;20638;-67
2022/03/11 07:01:49;;;;;;;36.45;17.33;;;;;;;4.94;49.65;96895.78;5051222;28;20117;-66
2022/03/11 07:04:14;;;;;;;22.23;11.70;;;;;;;3.19;57.86;96890.41;5035808;28;20397;-67
2022/03/11 07:06:40;;;;;;;21.15;11.98;;;;;;;1.50;62.57;96900.75;5023484;28;20452;-67
2022/03/11 07:09:05;;;;;;;27.35;12.70;;;;;;;1.45;64.48;96905.47;5039764;28;20029;-68
2022/03/11 07:11:32;;;;;;;26.73;12.25;;;;;;;2.26;63.77;96910.91;5030929;28;20052;-67
2022/03/11 07:13:58;;;;;;;29.58;20.10;;;;;;;2.01;63.28;96911.53;5023567;28;20042;-66
2022/03/11 07:16:23;;;;;;;18.05;10.35;;;;;;;2.02;63.23;96913.13;5014998;28;20337;-66
2022/03/11 07:18:49;;;;;;;25.05;10.77;;;;;;;1.87;62.50;96908.84;5026861;28;20187;-66
2022/03/11 07:21:14;;;;;;;20.83;10.50;;;;;;;2.98;59.85;96903.69;5032794;28;20052;-66
2022/03/11 07:23:40;;;;;;;18.48;9.00;;;;;;;5.15;54.59;96898.59;5025448;28;20413;-66
2022/03/11 07:26:05;;;;;;;17.10;9.73;;;;;;;5.84;49.34;96894.66;5039036;28;20048;-68
2022/03/11 07:28:30;;;;;;;20.75;9.40;;;;;;;7.86;46.43;96891.34;5044157;28;20472;-67
2022/03/11 07:30:56;;;;;;;17.75;8.73;;;;;;;9.67;41.72;96890.28;5053132;28;20048;-67
2022/03/11 07:33:21;;;;;;;14.57;8.85;;;;;;;10.53;40.39;96891.31;5054978;28;20533;-67
2022/03/11 07:35:47;;;;;;;15.57;9.15;;;;;;;10.75;38.85;96884.31;5041423;28;20492;-65
2022/03/11 07:38:12;;;;;;;20.70;11.18;;;;;;;8.52;41.72;96884.69;5038305;28;20077;-67
2022/03/11 07:40:38;;;;;;;16.15;10.40;;;;;;;7.27;46.83;96889.91;5042804;28;20041;-66
2022/03/11 07:43:04;;;;;;;22.30;14.50;;;;;;;6.53;50.34;96897.94;5039606;28;20473;-67
2022/03/11 07:45:30;;;;;;;22.23;12.05;;;;;;;7.71;47.33;96892.06;5043171;28;20048;-66
2022/03/11 07:47:55;;;;;;;30.13;12.95;;;;;;;5.70;52.75;96886.75;5043673;28;20041;-66
2022/03/11 07:50:21;;;;;;;20.55;12.30;;;;;;;6.78;51.18;96892.59;5011260;28;20656;-65
2022/03/11 07:52:47;;;;;;;25.75;14.55;;;;;;;6.18;51.34;96894.75;5043720;28;20051;-66
2022/03/11 07:55:12;;;;;;;20.83;12.20;;;;;;;8.57;46.23;96889.91;5020025;28;20114;-65
2022/03/11 07:57:39;;;;;;;33.78;15.13;;;;;;;8.93;44.78;96896.31;5027482;28;20041;-66
2022/03/11 08:00:09;;;;;;;28.70;17.70;;;;;;;6.15;50.03;96900.88;5052513;28;20099;-67
2022/03/11 08:02:35;;;;;;;27.30;16.05;;;;;;;5.99;52.83;96895.22;5048946;28;20044;-64
2022/03/11 08:05:01;;;;;;;25.38;14.38;;;;;;;5.00;54.89;96902.63;5025729;28;20404;-65
2022/03/11 08:07:27;;;;;;;35.33;17.88;;;;;;;6.06;52.01;96898.22;5037379;28;20591;-65
2022/03/11 08:09:52;;;;;;;25.85;13.35;;;;;;;4.95;54.44;96894.66;5040255;28;20059;-65
2022/03/11 08:12:18;;;;;;;35.38;18.50;;;;;;;4.69;54.85;96892.03;5037133;28;20048;-65
2022/03/11 08:14:43;;;;;;;34.25;18.15;;;;;;;3.99;57.60;96908.38;5043065;28;20052;-66
2022/03/11 08:17:09;;;;;;;40.40;18.98;;;;;;;4.96;55.30;96897.03;5017616;28;20049;-67
2022/03/11 08:19:35;;;;;;;32.25;16.77;;;;;;;5.61;53.96;96899.59;5029473;28;20045;-67
2022/03/11 08:22:02;;;;;;;33.28;17.60;;;;;;;5.55;53.53;96898.22;5028737;28;20044;-66
2022/03/11 08:24:28;;;;;;;32.45;18.52;;;;;;;4.74;55.52;96897.28;5040260;28;20073;-68
2022/03/11 08:26:54;;;;;;;36.90;19.70;;;;;;;4.65;55.90;96899.22;5042475;28;20072;-67
2022/03/11 08:29:20;;;;;;;36.30;20.50;;;;;;;4.92;56.47;96904.25;5038413;28;20504;-67
2022/03/11 08:31:49;;;;;;;32.63;17.48;;;;;;;4.56;56.50;96889.19;5039773;28;20498;-66
2022/03/11 08:34:15;;;;;;;27.43;14.90;;;;;;;4.73;57.20;96888.31;5019307;28;20528;-67
2022/03/11 08:36:41;;;;;;;35.25;19.63;;;;;;;4.96;55.62;96893.53;5024201;28;20049;-66
2022/03/11 08:39:07;;;;;;;31.23;16.60;;;;;;;5.20;54.89;96890.22;5036826;28;20048;-66
2022/03/11 08:41:32;;;;;;;33.22;17.17;;;;;;;4.73;55.73;96880.19;5042413;28;20045;-66
2022/03/11 08:43:59;;;;;;;31.35;18.55;;;;;;;5.20;55.45;96878.56;5041289;28;20044;-66
2022/03/11 08:46:29;;;;;;;38.22;21.58;;;;;;;5.27;55.75;96870.72;5037292;28;20114;-66
2022/03/11 08:48:55;;;;;;;37.13;20.45;;;;;;;6.69;51.13;96879.06;5042504;28;20426;-67
2022/03/11 08:51:20;;;;;;;39.30;20.55;;;;;;;5.80;52.81;96879.31;5037919;28;20037;-67
2022/03/11 08:53:46;;;;;;;45.72;22.52;;;;;;;6.61;50.89;96877.22;5038065;28;20053;-67
2022/03/11 08:56:11;;;;;;;36.10;19.60;;;;;;;7.16;49.28;96872.44;5035287;28;20115;-67
2022/03/11 08:58:37;;;;;;;35.95;19.33;;;;;;;7.12;48.61;96864.16;5032411;28;20508;-68
2022/03/11 09:01:03;;;;;;;36.03;18.33;;;;;;;6.48;51.27;96862.78;5016307;28;20049;-70
2022/03/11 09:03:28;;;;;;;36.95;18.60;;;;;;;9.00;45.33;96846.50;5026650;28;20041;-66
2022/03/11 09:05:54;;;;;;;33.90;16.67;;;;;;;11.17;39.51;96850.56;5025139;28;20099;-65
2022/03/11 09:08:20;;;;;;;31.80;16.65;;;;;;;9.08;43.13;96855.69;5029578;28;20040;-69
2022/03/11 09:10:46;;;;;;;33.13;16.35;;;;;;;7.54;46.35;96847.53;5031020;28;20052;-66
2022/03/11 09:13:12;;;;;;;32.22;17.55;;;;;;;6.84;48.43;96848.47;5017921;28;20045;-66
2022/03/11 09:15:37;;;;;;;27.50;15.77;;;;;;;7.69;47.08;96848.78;5028528;28;20049;-68
2022/03/11 09:18:03;;;;;;;36.08;19.13;;;;;;;8.33;44.39;96843.56;5028565;28;20099;-69
2022/03/11 09:20:29;;;;;;;30.33;16.25;;;;;;;7.92;46.97;96843.59;5029317;28;20056;-66
2022/03/11 09:22:54;;;;;;;29.92;15.75;;;;;;;11.29;40.00;96836.69;5024499;28;20041;-67
2022/03/11 09:25:20;;;;;;;27.17;16.38;;;;;;;12.38;36.71;96834.22;5024619;28;20044;-67
2022/03/11 09:27:46;;;;;;;34.78;15.48;;;;;;;11.98;36.57;96832.97;5029293;28;20087;-66
2022/03/11 09:30:12;;;;;;;27.10;14.90;;;;;;;10.32;38.74;96839.69;5020573;28;20053;-68
2022/03/11 09:32:38;;;;;;;29.58;16.27;;;;;;;9.16;42.39;96833.66;5030123;28;20532;-67
2022/03/11 09:35:05;;;;;;;28.27;15.30;;;;;;;9.42;40.73;96839.66;5027017;28;20049;-68
2022/03/11 09:37:30;;;;;;;24.90;15.30;;;;;;;9.38;41.95;96834.94;5024166;28;20260;-66
2022/03/11 09:39:56;;;;;;;26.35;15.30;;;;;;;9.35;41.59;96823.91;5034092;28;20124;-67
2022/03/11 09:42:21;;;;;;;29.73;15.35;;;;;;;11.56;38.29;96819.41;5025993;28;20067;-67
2022/03/11 09:44:55;;;;;;;25.35;13.82;;;;;;;13.10;34.05;96814.91;5025939;28;20125;-67
2022/03/11 09:47:21;;;;;;;25.45;14.88;;;;;;;13.56;33.20;96823.53;5024451;28;20075;-67
2022/03/11 09:49:48;;;;;;;55.92;18.02;;;;;;;12.97;34.16;96812.47;5045065;23;20050;-68
2022/03/11 09:52:16;;;;;;;24.20;13.55;;;;;;;13.16;34.81;96821.63;5006962;28;20448;-68
2022/03/11 09:54:41;;;;;;;24.77;14.27;;;;;;;13.68;32.55;96816.13;5013224;28;20172;-68
2022/03/11 09:57:07;;;;;;;24.13;14.25;;;;;;;13.94;32.92;96807.63;4996818;28;20054;-65
2022/03/11 09:59:34;;;;;;;28.60;14.35;;;;;;;14.31;32.65;96805.81;5015936;28;20068;-67
2022/03/11 10:02:00;;;;;;;28.30;14.50;;;;;;;13.02;34.48;96816.81;5015073;28;20062;-68
2022/03/11 10:04:25;;;;;;;23.00;13.52;;;;;;;10.78;38.64;96815.06;5007661;28;20416;-68
2022/03/11 10:06:54;;;;;;;25.95;15.00;;;;;;;10.38;39.07;96818.28;4992770;28;20052;-67
2022/03/11 10:09:19;;;;;;;25.13;14.57;;;;;;;11.82;36.74;96805.69;5007603;28;20078;-68
2022/03/11 10:11:53;;;;;;;24.10;13.13;;;;;;;10.69;38.50;96798.88;5009518;28;20049;-68
2022/03/11 10:14:30;;;;;;;25.35;14.18;;;;;;;9.83;41.28;96799.97;5001410;28;20811;-68
2022/03/11 10:16:56;;;;;;;28.90;13.93;;;;;;;8.75;43.30;96796.72;5008307;28;20518;-69
2022/03/11 10:19:22;;;;;;;26.98;13.77;;;;;;;9.49;42.50;96793.34;5006664;28;20795;-69
2022/03/11 10:21:50;;;;;;;24.40;13.98;;;;;;;11.19;38.62;96790.69;5015200;28;20042;-68
2022/03/11 10:24:20;;;;;;;30.80;14.43;;;;;;;9.89;40.66;96779.38;5007453;28;20048;-68
2022/03/11 10:26:53;;;;;;;27.13;15.07;;;;;;;8.89;44.26;96782.63;5016368;28;20096;-67
2022/03/11 10:29:24;;;;;;;22.00;12.63;;;;;;;8.72;42.96;96776.38;5006392;28;20104;-68
2022/03/11 10:31:53;;;;;;;28.27;12.73;;;;;;;9.44;42.68;96783.50;5009793;28;20100;-67
2022/03/11 10:34:27;;;;;;;23.80;13.00;;;;;;;8.23;44.46;96780.16;5004311;28;20045;-67
2022/03/11 10:37:04;;;;;;;20.95;12.20;;;;;;;9.14;44.23;96775.81;5028851;28;20049;-66
2022/03/11 10:39:33;;;;;;;22.75;12.32;;;;;;;8.88;43.95;96775.59;5015351;28;20056;-68
2022/03/11 10:42:13;;;;;;;25.45;12.85;;;;;;;10.15;41.31;96769.69;5015870;28;20071;-67
2022/03/11 10:44:40;;;;;;;22.92;12.43;;;;;;;12.32;37.11;96760.81;5012607;28;20124;-67
2022/03/11 10:47:23;;;;;;;22.52;12.75;;;;;;;10.91;39.05;96763.63;5013011;28;20535;-67
2022/03/11 10:49:50;;;;;;;28.40;12.93;;;;;;;10.49;40.17;96761.75;5011606;28;20153;-69
2022/03/11 10:52:29;;;;;;;26.17;12.05;;;;;;;11.13;37.81;96766.69;5006288;28;20033;-68
2022/03/11 10:54:54;;;;;;;21.52;12.43;;;;;;;9.88;39.67;96761.38;5010669;28;20049;-69
2022/03/11 10:57:21;;;;;;;23.40;11.75;;;;;;;9.65;40.62;96760.50;5007533;28;20049;-67
2022/03/11 10:59:46;;;;;;;24.02;12.82;;;;;;;9.40;41.95;96747.09;5010856;28;20038;-68
2022/03/11 11:02:12;;;;;;;24.38;12.77;;;;;;;10.12;40.87;96751.28;5004452;28;20038;-68
2022/03/11 11:04:40;;;;;;;25.17;13.10;;;;;;;11.01;41.05;96754.00;5018766;28;20049;-68
2022/03/11 11:07:06;;;;;;;23.20;12.35;;;;;;;11.17;38.38;96734.66;5020490;28;20045;-66
2022/03/11 11:09:31;;;;;;;21.48;11.82;;;;;;;10.79;38.69;96741.91;5016976;28;20071;-66
2022/03/11 11:11:57;;;;;;;25.77;12.20;;;;;;;10.56;39.56;96736.44;5014707;28;20140;-68
2022/03/11 11:14:23;;;;;;;30.00;15.02;;;;;;;12.24;41.34;96726.97;4992994;28;20500;-67
2022/03/11 11:16:51;;;;;;;24.90;13.20;;;;;;;13.03;38.64;96724.91;5004791;28;20041;-68
2022/03/11 11:19:19;;;;;;;23.35;12.40;;;;;;;13.57;35.15;96714.25;5004878;28;20543;-67